Time;durP1;ratioP1;P1;durP2;ratioP2;P2;SDS_P1;SDS_P2;PMS_P1;PMS_P2;Temp;Humidity;BMP_temperature;BMP_pressure;BME280_temperature;BME280_humidity;BME280_pressure;Samples;Min_cycle;Max_cycle;Signal;HPM_P1;HPM_P2
2023/10/04 05:37:32;;;;;;;23.10;14.50;;;14.70;60.10;;;;;;5071253;28;20942;-73
2023/10/04 05:39:59;;;;;;;10.93;6.07;;;14.80;59.80;;;;;;5069710;28;20127;-74
2023/10/04 05:42:25;;;;;;;7.93;3.70;;;14.90;59.80;;;;;;5070907;28;20426;-76
2023/10/04 05:44:52;;;;;;;8.25;4.03;;;14.90;59.80;;;;;;5053199;28;20021;-75
2023/10/04 05:47:17;;;;;;;7.50;4.10;;;15.00;59.80;;;;;;5069999;28;20063;-76
2023/10/04 05:49:44;;;;;;;7.32;3.70;;;15.00;59.80;;;;;;5071021;28;20056;-74
2023/10/04 05:52:09;;;;;;;7.32;3.65;;;15.00;59.70;;;;;;5070686;28;20037;-76
2023/10/04 05:54:35;;;;;;;6.78;3.65;;;15.10;59.70;;;;;;5070099;28;20028;-76
2023/10/04 05:57:02;;;;;;;7.35;4.05;;;15.10;59.60;;;;;;5069136;28;20087;-76
2023/10/04 05:59:27;;;;;;;7.75;3.80;;;15.20;59.70;;;;;;5070629;28;20037;-75
2023/10/04 06:01:53;;;;;;;8.32;4.00;;;15.20;59.60;;;;;;5069364;28;20021;-75
2023/10/04 06:04:19;;;;;;;7.22;4.13;;;15.20;59.60;;;;;;5069226;28;20025;-75
2023/10/04 06:06:45;;;;;;;5.90;3.28;;;15.30;59.60;;;;;;5065686;28;20035;-76
2023/10/04 06:09:11;;;;;;;5.18;3.15;;;15.30;60.20;;;;;;5054738;28;20479;-81
2023/10/04 06:11:36;;;;;;;5.80;3.50;;;15.40;60.50;;;;;;5051010;28;20024;-76
2023/10/04 06:14:02;;;;;;;7.72;3.60;;;15.50;60.80;;;;;;5063098;28;20033;-77
2023/10/04 06:16:28;;;;;;;9.95;4.15;;;15.70;60.50;;;;;;5070631;28;20526;-76
2023/10/04 06:18:53;;;;;;;7.53;4.07;;;15.80;60.10;;;;;;5069529;28;20021;-75
2023/10/04 06:21:21;;;;;;;11.45;4.22;;;15.90;60.00;;;;;;5067292;28;20035;-76
2023/10/04 06:23:48;;;;;;;7.75;4.13;;;15.90;59.80;;;;;;5069866;28;20368;-77
2023/10/04 06:26:16;;;;;;;6.78;3.92;;;16.00;59.70;;;;;;5069873;28;20024;-76
2023/10/04 06:28:43;;;;;;;8.55;4.20;;;16.00;59.60;;;;;;5049769;28;20121;-75
2023/10/04 06:31:08;;;;;;;9.55;4.03;;;16.10;59.50;;;;;;5050301;28;20046;-75
2023/10/04 06:33:34;;;;;;;8.48;3.58;;;16.10;59.40;;;;;;5050331;28;20052;-76
2023/10/04 06:36:00;;;;;;;8.45;4.13;;;16.10;59.40;;;;;;5052951;28;20064;-76
2023/10/04 06:38:26;;;;;;;7.43;4.03;;;16.20;59.30;;;;;;5069908;28;20025;-77
2023/10/04 06:40:52;;;;;;;7.28;3.88;;;16.20;59.20;;;;;;5057096;28;20044;-75
2023/10/04 06:43:18;;;;;;;8.25;3.75;;;16.30;59.30;;;;;;5050445;28;20060;-76
2023/10/04 06:45:43;;;;;;;8.57;3.80;;;16.30;59.20;;;;;;5059849;28;20052;-77
2023/10/04 06:48:09;;;;;;;9.02;4.00;;;16.40;59.20;;;;;;5058658;28;20033;-78
2023/10/04 06:50:38;;;;;;;7.90;3.55;;;16.40;59.20;;;;;;5048762;28;20468;-77
2023/10/04 06:53:04;;;;;;;10.35;4.47;;;16.40;59.10;;;;;;5050866;28;20029;-77
2023/10/04 06:55:32;;;;;;;9.57;3.80;;;16.50;59.10;;;;;;5053955;28;20052;-77
2023/10/04 06:57:58;;;;;;;13.23;5.78;;;16.50;59.10;;;;;;5043367;28;20423;-74
2023/10/04 07:00:29;;;;;;;8.88;3.83;;;16.50;59.40;;;;;;5046035;28;20386;-77
2023/10/04 07:02:59;;;;;;;8.65;4.15;;;16.60;60.10;;;;;;5036742;28;20029;-76
2023/10/04 07:05:47;;;;;;;7.70;4.30;;;16.80;60.00;;;;;;5034798;28;20036;-77
2023/10/04 07:08:13;;;;;;;9.63;4.20;;;17.00;60.10;;;;;;5036282;28;20022;-77
2023/10/04 07:10:38;;;;;;;11.73;3.38;;;17.10;59.80;;;;;;5036425;28;20463;-77
2023/10/04 07:13:06;;;;;;;8.07;4.10;;;17.10;59.80;;;;;;5036209;28;20438;-76
2023/10/04 07:15:35;;;;;;;7.72;3.83;;;17.20;59.70;;;;;;5043784;28;20509;-76
2023/10/04 07:18:04;;;;;;;6.43;4.00;;;17.30;59.70;;;;;;5055773;28;20455;-77
2023/10/04 07:20:30;;;;;;;6.80;3.63;;;17.50;59.70;;;;;;5054700;28;20421;-76
2023/10/04 07:22:59;;;;;;;9.63;3.80;;;17.50;59.50;;;;;;5054578;28;20036;-75
2023/10/04 07:25:28;;;;;;;11.07;3.63;;;17.60;59.40;;;;;;5055729;28;20119;-74
2023/10/04 07:28:02;;;;;;;12.05;4.07;;;17.70;59.30;;;;;;5055673;28;20032;-76
2023/10/04 07:30:28;;;;;;;8.13;3.63;;;17.80;59.30;;;;;;5055907;28;20025;-76
2023/10/04 07:32:54;;;;;;;8.48;3.50;;;17.90;59.20;;;;;;5054029;28;20188;-76
2023/10/04 07:35:25;;;;;;;10.32;3.60;;;18.00;59.00;;;;;;5054592;28;20117;-76
2023/10/04 07:37:54;;;;;;;9.80;3.63;;;18.10;58.80;;;;;;5054550;28;20087;-76
2023/10/04 07:40:25;;;;;;;6.32;3.70;;;18.20;58.70;;;;;;5055684;28;20079;-75
2023/10/04 07:42:52;;;;;;;7.28;3.78;;;18.30;58.50;;;;;;5054378;28;20024;-77
2023/10/04 07:45:19;;;;;;;10.23;3.80;;;18.30;58.30;;;;;;5036674;28;20053;-77
2023/10/04 07:47:45;;;;;;;12.80;3.70;;;18.40;58.30;;;;;;5036032;28;20041;-76
2023/10/04 07:50:15;;;;;;;7.47;3.40;;;18.50;58.30;;;;;;5035678;28;20103;-76
2023/10/04 07:52:44;;;;;;;7.22;3.17;;;18.60;58.20;;;;;;5034138;28;20052;-76
2023/10/04 07:55:14;;;;;;;7.03;3.42;;;18.70;58.70;;;;;;5034233;28;20380;-76
2023/10/04 07:57:44;;;;;;;7.90;3.65;;;18.80;57.90;;;;;;5035065;28;20091;-77
2023/10/04 08:00:13;;;;;;;8.68;3.78;;;18.80;57.80;;;;;;5034350;28;20161;-76
2023/10/04 08:02:45;;;;;;;6.20;3.63;;;19.00;57.60;;;;;;5041736;28;20029;-77
2023/10/04 08:05:23;;;;;;;6.10;3.33;;;19.10;57.20;;;;;;5055651;28;20021;-77
2023/10/04 08:07:51;;;;;;;7.72;3.88;;;19.10;57.10;;;;;;5054907;28;20068;-77
2023/10/04 08:10:17;;;;;;;12.13;3.47;;;19.20;57.10;;;;;;5053612;28;20467;-79
2023/10/04 08:12:44;;;;;;;11.25;3.50;;;19.20;57.00;;;;;;5054671;28;20486;-77
2023/10/04 08:15:15;;;;;;;7.57;3.60;;;19.30;57.00;;;;;;5054561;28;20067;-75
2023/10/04 08:17:43;;;;;;;8.05;3.08;;;19.40;56.90;;;;;;5054954;28;20068;-76
2023/10/04 08:20:12;;;;;;;9.60;3.45;;;19.50;56.80;;;;;;5054721;28;20367;-76
2023/10/04 08:22:40;;;;;;;10.90;3.30;;;19.50;56.70;;;;;;5054675;28;20033;-75
2023/10/04 08:25:06;;;;;;;10.05;3.90;;;19.60;56.60;;;;;;5053348;28;20029;-76
2023/10/04 08:27:32;;;;;;;6.70;3.20;;;19.70;56.40;;;;;;5053137;28;20123;-77
2023/10/04 08:29:58;;;;;;;7.95;3.40;;;19.70;56.30;;;;;;5054908;28;20106;-77
2023/10/04 08:32:24;;;;;;;8.48;3.65;;;19.80;56.30;;;;;;5054097;28;20451;-77
2023/10/04 08:34:49;;;;;;;6.05;3.00;;;19.90;56.30;;;;;;5053309;28;20033;-75
2023/10/04 08:37:16;;;;;;;7.32;3.25;;;19.90;56.20;;;;;;5053956;28;20487;-76
2023/10/04 08:39:41;;;;;;;6.43;3.25;;;19.90;56.10;;;;;;5054443;28;20059;-76
2023/10/04 08:42:07;;;;;;;8.65;3.50;;;20.00;56.00;;;;;;5054568;28;20173;-76
2023/10/04 08:44:33;;;;;;;8.60;3.58;;;20.10;55.90;;;;;;5053116;28;20507;-77
2023/10/04 08:47:05;;;;;;;6.88;3.30;;;20.10;55.80;;;;;;5053075;28;20036;-76
2023/10/04 08:49:42;;;;;;;6.60;3.20;;;20.20;55.60;;;;;;5052836;28;20028;-75
2023/10/04 08:52:18;;;;;;;7.53;3.38;;;20.20;56.20;;;;;;5052998;28;20029;-77
2023/10/04 08:54:50;;;;;;;10.60;3.28;;;20.20;55.40;;;;;;5053426;28;20147;-75
2023/10/04 08:57:20;;;;;;;8.57;3.50;;;20.30;55.50;;;;;;5053062;28;20033;-76
2023/10/04 08:59:48;;;;;;;9.27;3.30;;;20.30;55.30;;;;;;5054102;28;20113;-76
2023/10/04 09:02:15;;;;;;;7.85;3.40;;;20.40;55.10;;;;;;5050309;28;20036;-77
2023/10/04 09:04:42;;;;;;;7.95;3.13;;;20.40;55.00;;;;;;5037653;28;20030;-76
2023/10/04 09:07:11;;;;;;;9.00;3.38;;;20.50;55.00;;;;;;5034263;28;20414;-76
2023/10/04 09:09:40;;;;;;;7.72;3.50;;;20.60;55.00;;;;;;5032643;28;20035;-75
2023/10/04 09:12:09;;;;;;;4.80;3.00;;;20.60;55.00;;;;;;5033740;28;20026;-75
2023/10/04 09:14:38;;;;;;;6.97;3.47;;;20.60;54.70;;;;;;5034230;28;20029;-77
2023/10/04 09:17:12;;;;;;;7.53;3.17;;;20.70;54.70;;;;;;5032504;28;20038;-76
2023/10/04 09:19:38;;;;;;;4.95;2.92;;;20.70;54.60;;;;;;5034093;28;20430;-76
2023/10/04 09:22:05;;;;;;;5.90;3.35;;;20.80;54.20;;;;;;5033011;28;20029;-78
2023/10/04 09:24:31;;;;;;;9.20;4.00;;;20.80;54.20;;;;;;5036019;28;20034;-77
2023/10/04 09:26:57;;;;;;;8.15;3.42;;;20.90;54.20;;;;;;5038725;28;20521;-77
2023/10/04 09:29:31;;;;;;;6.82;3.30;;;20.90;54.20;;;;;;5052413;28;20115;-76
2023/10/04 09:31:57;;;;;;;8.73;3.30;;;20.90;54.70;;;;;;5054055;28;20033;-76
2023/10/04 09:34:23;;;;;;;7.63;3.47;;;21.00;53.90;;;;;;5052248;28;20083;-76
2023/10/04 09:36:52;;;;;;;7.38;3.97;;;21.00;53.80;;;;;;5051805;28;20053;-76
2023/10/04 09:39:24;;;;;;;6.03;3.53;;;21.10;53.80;;;;;;5052164;28;20104;-75
2023/10/04 09:41:51;;;;;;;7.15;3.35;;;21.20;53.70;;;;;;5053641;28;20078;-77
2023/10/04 09:44:23;;;;;;;6.82;3.50;;;21.20;53.50;;;;;;5053301;28;20025;-77
2023/10/04 09:47:00;;;;;;;7.88;3.22;;;21.30;53.40;;;;;;5052783;28;20074;-76
2023/10/04 09:49:33;;;;;;;5.90;2.83;;;21.30;53.30;;;;;;5052632;28;20021;-77
2023/10/04 09:52:01;;;;;;;7.07;3.20;;;21.40;53.20;;;;;;5052720;28;20036;-75
2023/10/04 09:54:34;;;;;;;7.18;3.45;;;21.50;52.90;;;;;;5053456;28;20122;-76
2023/10/04 09:57:06;;;;;;;5.65;3.35;;;21.60;52.70;;;;;;5052828;28;20475;-77
2023/10/04 09:59:33;;;;;;;10.02;4.03;;;21.70;52.30;;;;;;5052740;28;20029;-78
2023/10/04 10:02:00;;;;;;;8.70;3.78;;;21.70;51.60;;;;;;5053236;28;20029;-78
2023/10/04 10:04:30;;;;;;;6.95;4.10;;;21.80;51.70;;;;;;5053346;28;20033;-75
2023/10/04 10:07:10;;;;;;;7.05;3.40;;;21.90;51.80;;;;;;5051866;28;20390;-75
2023/10/04 10:09:46;;;;;;;8.10;3.28;;;22.00;52.50;;;;;;5052541;28;20508;-75
2023/10/04 10:12:13;;;;;;;9.10;3.65;;;22.10;51.60;;;;;;5052414;28;20025;-77
2023/10/04 10:14:41;;;;;;;5.03;3.03;;;22.20;51.10;;;;;;5051858;28;20068;-78
2023/10/04 10:17:10;;;;;;;6.55;3.60;;;22.30;51.10;;;;;;5051947;28;20064;-77
2023/10/04 10:19:36;;;;;;;5.85;3.80;;;22.30;50.90;;;;;;5053134;28;20021;-76
2023/10/04 10:22:11;;;;;;;6.20;3.45;;;22.40;50.70;;;;;;5033628;28;20112;-75
2023/10/04 10:24:56;;;;;;;8.50;3.70;;;22.50;50.90;;;;;;5037094;28;20034;-76
2023/10/04 10:27:26;;;;;;;7.35;3.45;;;22.60;50.90;;;;;;5036898;28;20056;-76
2023/10/04 10:29:52;;;;;;;6.22;3.08;;;22.70;50.70;;;;;;5051341;28;20029;-75
2023/10/04 10:32:23;;;;;;;5.55;3.40;;;22.70;50.60;;;;;;5056380;28;20032;-75
2023/10/04 10:34:51;;;;;;;6.82;3.42;;;22.70;50.50;;;;;;5057084;28;20028;-75
2023/10/04 10:37:18;;;;;;;7.72;3.28;;;22.80;50.50;;;;;;5056387;28;20053;-77
2023/10/04 10:39:52;;;;;;;5.13;2.88;;;22.90;50.60;;;;;;5056702;28;20029;-75
2023/10/04 10:42:18;;;;;;;4.57;3.20;;;22.90;50.50;;;;;;5052958;28;20031;-75
2023/10/04 10:44:45;;;;;;;5.25;2.80;;;23.00;50.50;;;;;;5042518;28;20033;-76
2023/10/04 10:47:26;;;;;;;5.40;3.30;;;23.00;50.50;;;;;;5055250;28;20033;-75
2023/10/04 10:50:04;;;;;;;5.18;3.30;;;23.10;50.40;;;;;;5038743;28;20471;-76
2023/10/04 10:52:46;;;;;;;7.72;3.65;;;23.10;50.20;;;;;;5055170;28;20035;-76
2023/10/04 10:55:19;;;;;;;6.35;3.55;;;23.10;50.20;;;;;;5056727;28;20025;-76
2023/10/04 10:57:50;;;;;;;7.65;3.70;;;23.10;49.80;;;;;;5056821;28;20045;-75
2023/10/04 11:00:19;;;;;;;7.40;3.53;;;23.10;49.90;;;;;;5056181;28;20028;-76
2023/10/04 11:02:49;;;;;;;5.85;3.55;;;23.10;49.90;;;;;;5056263;28;20056;-75
2023/10/04 11:05:33;;;;;;;6.35;3.20;;;23.10;50.40;;;;;;5055053;28;20119;-76
2023/10/04 11:07:59;;;;;;;7.53;3.38;;;23.20;49.80;;;;;;5056222;28;20025;-76
2023/10/04 11:10:25;;;;;;;9.75;3.47;;;23.20;49.90;;;;;;5055943;28;20031;-77
2023/10/04 11:13:03;;;;;;;5.22;3.30;;;23.20;49.80;;;;;;5054612;28;20580;-76
2023/10/04 11:15:29;;;;;;;7.28;3.47;;;23.10;49.80;;;;;;5054958;28;20444;-75
2023/10/04 11:17:57;;;;;;;6.40;3.60;;;23.20;49.90;;;;;;5054216;28;20043;-75
2023/10/04 11:20:23;;;;;;;7.07;3.70;;;23.20;49.70;;;;;;5055144;28;20477;-70
2023/10/04 11:22:49;;;;;;;18.77;14.65;;;23.20;49.90;;;;;;5055136;28;20112;-74
2023/10/04 11:25:17;;;;;;;16.50;11.77;;;23.20;49.70;;;;;;5046151;28;20529;-77
2023/10/04 11:27:47;;;;;;;5.28;3.42;;;23.20;49.70;;;;;;5037965;28;20494;-75
2023/10/04 11:30:17;;;;;;;7.57;3.60;;;23.30;49.60;;;;;;5036018;28;20021;-79
2023/10/04 11:32:45;;;;;;;5.95;3.50;;;23.30;49.50;;;;;;5034596;28;20061;-71
2023/10/04 11:35:12;;;;;;;5.60;3.50;;;23.30;49.50;;;;;;5038759;28;20459;-70
2023/10/04 11:37:44;;;;;;;6.43;3.72;;;23.40;49.60;;;;;;5050973;28;20474;-71
2023/10/04 11:40:13;;;;;;;5.43;3.28;;;23.50;49.50;;;;;;5052475;28;20033;-73
2023/10/04 11:42:44;;;;;;;6.55;3.67;;;23.50;49.40;;;;;;5047194;28;20025;-70
2023/10/04 11:45:16;;;;;;;8.68;4.05;;;23.50;49.30;;;;;;5034316;28;20029;-71
2023/10/04 11:47:43;;;;;;;7.05;3.30;;;23.50;49.30;;;;;;5035470;28;20068;-71
2023/10/04 11:50:10;;;;;;;6.05;3.60;;;23.40;49.30;;;;;;5035363;28;20034;-71
2023/10/04 11:52:36;;;;;;;7.53;3.70;;;23.40;49.20;;;;;;5040086;28;20455;-80
2023/10/04 11:55:03;;;;;;;6.50;3.50;;;23.40;49.40;;;;;;5053295;28;20029;-74
2023/10/04 11:57:37;;;;;;;36.97;26.02;;;23.30;49.50;;;;;;5047131;28;20036;-69
2023/10/04 12:00:21;;;;;;;5.65;3.50;;;23.30;49.60;;;;;;5042775;28;20368;-71
2023/10/04 12:02:48;;;;;;;7.53;3.30;;;23.20;49.70;;;;;;5033760;28;20096;-70
2023/10/04 12:05:15;;;;;;;10.38;4.30;;;23.10;49.70;;;;;;5035060;28;20022;-75
2023/10/04 12:07:41;;;;;;;6.18;3.38;;;23.00;49.70;;;;;;5034042;28;20025;-76
2023/10/04 12:10:09;;;;;;;5.50;3.30;;;23.00;49.90;;;;;;5045498;28;20035;-72
2023/10/04 12:12:35;;;;;;;6.88;3.80;;;22.90;50.00;;;;;;5053707;28;20455;-72
2023/10/04 12:15:00;;;;;;;6.07;3.60;;;22.90;50.10;;;;;;5053748;28;20075;-73
2023/10/04 12:17:26;;;;;;;7.68;3.65;;;22.90;50.00;;;;;;5054718;28;20486;-73
2023/10/04 12:19:52;;;;;;;7.18;3.83;;;22.80;50.00;;;;;;5053393;28;20056;-74
2023/10/04 12:22:19;;;;;;;6.20;3.40;;;22.70;50.10;;;;;;5053355;28;20025;-73
2023/10/04 12:24:46;;;;;;;6.40;3.10;;;22.80;50.20;;;;;;5053409;28;20029;-73
2023/10/04 12:27:16;;;;;;;5.88;3.40;;;22.70;50.20;;;;;;5053668;28;20029;-73
2023/10/04 12:29:41;;;;;;;7.20;3.67;;;22.70;50.20;;;;;;5053353;28;20029;-74
2023/10/04 12:32:07;;;;;;;7.20;3.40;;;22.80;50.40;;;;;;5054444;28;20032;-73
2023/10/04 12:34:36;;;;;;;8.85;3.95;;;22.80;50.40;;;;;;5053181;28;20124;-72
2023/10/04 12:37:02;;;;;;;5.15;3.58;;;22.80;50.30;;;;;;5053797;28;20104;-76
2023/10/04 12:39:28;;;;;;;8.02;3.90;;;22.70;50.30;;;;;;5040522;28;20033;-74
2023/10/04 12:41:59;;;;;;;5.63;3.65;;;22.70;50.40;;;;;;5034036;28;20021;-74
2023/10/04 12:44:25;;;;;;;6.13;4.20;;;22.60;50.40;;;;;;5034421;28;20033;-74
2023/10/04 12:46:50;;;;;;;7.20;3.67;;;22.60;50.50;;;;;;5033726;28;20026;-75
2023/10/04 12:49:18;;;;;;;6.60;3.83;;;22.50;50.60;;;;;;5033007;28;20021;-74
2023/10/04 12:51:48;;;;;;;9.45;3.90;;;22.40;50.70;;;;;;5033976;28;20032;-74
2023/10/04 12:54:16;;;;;;;7.95;4.38;;;22.30;50.80;;;;;;5034438;28;20025;-74
2023/10/04 12:56:42;;;;;;;7.25;4.25;;;22.20;50.90;;;;;;5033917;28;20075;-74
2023/10/04 12:59:10;;;;;;;7.72;4.43;;;22.10;51.10;;;;;;5034375;28;20026;-74
2023/10/04 13:01:36;;;;;;;6.38;4.03;;;22.00;51.30;;;;;;5033981;28;20104;-74
2023/10/04 13:04:03;;;;;;;6.32;3.92;;;22.00;51.50;;;;;;5034049;28;20109;-73
2023/10/04 13:06:29;;;;;;;7.72;4.10;;;21.90;51.60;;;;;;5032534;28;20033;-74
2023/10/04 13:08:55;;;;;;;8.05;4.47;;;21.90;51.70;;;;;;5032874;28;20068;-73
2023/10/04 13:11:21;;;;;;;5.82;3.63;;;21.80;52.00;;;;;;5032766;28;20049;-72
2023/10/04 13:13:47;;;;;;;7.53;4.20;;;21.70;52.20;;;;;;5033998;28;20485;-72
2023/10/04 13:16:12;;;;;;;7.47;3.92;;;21.60;52.50;;;;;;5033568;28;20128;-75
2023/10/04 13:18:38;;;;;;;5.68;3.95;;;21.60;53.00;;;;;;5033909;28;20479;-73
2023/10/04 13:21:10;;;;;;;7.38;4.57;;;21.50;53.30;;;;;;5032747;28;20028;-74
2023/10/04 13:23:36;;;;;;;6.60;4.10;;;21.40;53.50;;;;;;5033184;28;20368;-74
2023/10/04 13:26:02;;;;;;;5.90;4.07;;;21.30;53.70;;;;;;5033487;28;20029;-76
2023/10/04 13:28:30;;;;;;;7.15;3.63;;;21.40;53.90;;;;;;5032795;28;20044;-73
2023/10/04 13:30:56;;;;;;;5.43;3.78;;;21.30;54.00;;;;;;5033515;28;20021;-74
2023/10/04 13:33:23;;;;;;;7.18;3.72;;;21.20;54.10;;;;;;5033354;28;20536;-73
2023/10/04 13:35:51;;;;;;;8.30;4.40;;;21.20;54.20;;;;;;5034893;28;20076;-73
2023/10/04 13:38:19;;;;;;;6.05;3.67;;;21.20;54.30;;;;;;5053447;28;20025;-74
2023/10/04 13:40:47;;;;;;;6.35;3.95;;;21.10;54.50;;;;;;5053483;28;20027;-73
2023/10/04 13:43:13;;;;;;;8.68;3.80;;;21.10;54.70;;;;;;5052089;28;20025;-74
2023/10/04 13:45:39;;;;;;;8.05;4.57;;;21.00;54.70;;;;;;5051996;28;20378;-73
2023/10/04 13:48:09;;;;;;;7.38;4.03;;;21.00;54.90;;;;;;5053327;28;20433;-73
2023/10/04 13:50:37;;;;;;;5.68;3.90;;;20.90;55.00;;;;;;5053399;28;20120;-74
2023/10/04 13:53:05;;;;;;;9.63;4.25;;;20.90;55.20;;;;;;5053329;28;20467;-73
2023/10/04 13:55:31;;;;;;;5.57;3.30;;;20.80;55.20;;;;;;5052281;28;20426;-73
2023/10/04 13:57:59;;;;;;;7.95;4.10;;;20.80;55.30;;;;;;5054737;28;20029;-75
2023/10/04 14:00:25;;;;;;;7.25;4.10;;;20.80;55.40;;;;;;5057055;28;20040;-73
2023/10/04 14:02:54;;;;;;;6.03;3.70;;;20.70;55.50;;;;;;5056558;28;20025;-73
2023/10/04 14:05:20;;;;;;;6.18;3.55;;;20.70;55.60;;;;;;5050044;28;20460;-75
2023/10/04 14:07:53;;;;;;;6.40;3.90;;;20.70;55.70;;;;;;5035889;28;20036;-72
2023/10/04 14:10:23;;;;;;;10.07;4.33;;;20.70;55.70;;;;;;5037384;28;20033;-75
2023/10/04 14:12:53;;;;;;;7.45;4.13;;;20.70;55.90;;;;;;5036832;28;20350;-75
2023/10/04 14:15:28;;;;;;;7.10;4.05;;;20.70;56.00;;;;;;5036020;28;20419;-74
2023/10/04 14:17:55;;;;;;;5.28;3.42;;;20.70;56.10;;;;;;5037145;28;20041;-74
2023/10/04 14:20:22;;;;;;;6.18;3.67;;;20.60;56.10;;;;;;5035980;28;20036;-73
2023/10/04 14:22:49;;;;;;;7.55;3.63;;;20.60;56.20;;;;;;5035869;28;20041;-74
2023/10/04 14:25:15;;;;;;;6.70;3.75;;;20.60;57.00;;;;;;5036867;28;20021;-73
2023/10/04 14:27:43;;;;;;;6.28;3.85;;;20.60;56.40;;;;;;5036400;28;20368;-74
2023/10/04 14:30:12;;;;;;;6.38;3.53;;;20.60;56.60;;;;;;5037369;28;20041;-74
2023/10/04 14:32:42;;;;;;;6.35;3.47;;;20.60;56.60;;;;;;5035341;28;20025;-73
2023/10/04 14:35:09;;;;;;;6.40;3.83;;;20.60;56.70;;;;;;5038543;28;20383;-74
2023/10/04 14:37:36;;;;;;;4.53;3.13;;;20.60;56.80;;;;;;5036818;28;20029;-73
2023/10/04 14:40:25;;;;;;;6.05;3.60;;;20.60;56.90;;;;;;5036883;28;20060;-74
2023/10/04 14:42:54;;;;;;;5.85;3.47;;;20.60;57.00;;;;;;5035462;28;20033;-72
2023/10/04 14:45:21;;;;;;;5.75;4.00;;;20.50;57.00;;;;;;5052495;28;20033;-73
2023/10/04 14:47:47;;;;;;;6.70;4.30;;;20.50;57.20;;;;;;5055442;28;20033;-73
2023/10/04 14:50:13;;;;;;;7.25;4.03;;;20.50;57.40;;;;;;5055346;28;20032;-74
2023/10/04 14:52:43;;;;;;;6.50;4.10;;;20.40;57.50;;;;;;5055438;28;20029;-72
2023/10/04 14:55:10;;;;;;;7.32;3.80;;;20.40;57.60;;;;;;5054828;28;20033;-72
2023/10/04 14:57:39;;;;;;;7.13;3.90;;;20.40;57.70;;;;;;5056428;28;20463;-73
2023/10/04 15:00:27;;;;;;;8.32;3.03;;;20.40;57.80;;;;;;5055012;28;20065;-74
2023/10/04 15:02:56;;;;;;;7.43;3.50;;;20.30;57.80;;;;;;5056055;28;20037;-74
2023/10/04 15:05:22;;;;;;;6.20;4.35;;;20.30;57.90;;;;;;5039326;28;20088;-73
2023/10/04 15:07:48;;;;;;;8.10;4.03;;;20.30;57.90;;;;;;5034758;28;20541;-73
2023/10/04 15:10:18;;;;;;;10.18;4.13;;;20.30;58.10;;;;;;5035846;28;20022;-73
2023/10/04 15:12:47;;;;;;;8.55;3.80;;;20.30;58.10;;;;;;5036040;28;20110;-73
2023/10/04 15:15:15;;;;;;;6.28;3.35;;;20.20;58.20;;;;;;5036912;28;20021;-75
2023/10/04 15:17:43;;;;;;;7.03;3.80;;;20.20;58.30;;;;;;5051987;28;20064;-72
2023/10/04 15:20:10;;;;;;;5.88;3.20;;;20.20;58.40;;;;;;5055186;28;20028;-73
2023/10/04 15:22:39;;;;;;;5.35;3.40;;;20.10;58.50;;;;;;5055928;28;20022;-73
2023/10/04 15:25:11;;;;;;;4.75;3.28;;;20.10;58.50;;;;;;5052957;28;20029;-73
2023/10/04 15:27:43;;;;;;;6.75;3.78;;;20.10;58.70;;;;;;5054538;28;20031;-75
2023/10/04 15:30:19;;;;;;;8.40;3.85;;;20.10;58.80;;;;;;5049113;28;20428;-73
2023/10/04 15:32:49;;;;;;;4.97;3.25;;;20.00;58.80;;;;;;5036408;28;20029;-72
2023/10/04 15:35:17;;;;;;;5.28;3.65;;;20.00;58.90;;;;;;5042954;28;20025;-75
2023/10/04 15:37:43;;;;;;;5.72;3.55;;;20.00;59.10;;;;;;5038524;28;20046;-83
2023/10/04 15:40:15;;;;;;;6.47;3.50;;;20.00;59.20;;;;;;5036578;28;20028;-85
2023/10/04 15:42:42;;;;;;;5.78;3.47;;;19.90;59.10;;;;;;5038115;28;20043;-80
2023/10/04 15:45:16;;;;;;;4.30;3.17;;;19.90;59.20;;;;;;5042126;28;20025;-83
2023/10/04 15:47:44;;;;;;;6.38;3.45;;;19.90;59.20;;;;;;5050662;28;20052;-78
2023/10/04 15:50:13;;;;;;;7.50;3.38;;;19.80;59.30;;;;;;5045700;28;20029;-84
2023/10/04 15:52:40;;;;;;;5.78;3.67;;;19.80;59.40;;;;;;5046178;28;20170;-75
2023/10/04 15:55:07;;;;;;;5.03;3.30;;;19.80;59.50;;;;;;5049247;28;20402;-76
2023/10/04 15:57:32;;;;;;;4.72;3.17;;;19.70;59.60;;;;;;5039965;28;20037;-77
2023/10/04 16:00:08;;;;;;;100.72;75.82;;;19.70;59.70;;;;;;5050939;28;20378;-74
2023/10/04 16:02:34;;;;;;;36.88;25.25;;;19.60;59.80;;;;;;5054523;28;20029;-79
2023/10/04 16:04:59;;;;;;;13.13;8.32;;;19.60;60.00;;;;;;5040794;28;20032;-74
2023/10/04 16:07:27;;;;;;;8.25;4.10;;;19.60;60.00;;;;;;5044295;28;20048;-77
2023/10/04 16:09:52;;;;;;;6.28;3.28;;;19.60;60.00;;;;;;5036410;28;20506;-81
2023/10/04 16:12:18;;;;;;;6.00;3.40;;;19.60;60.10;;;;;;5048152;28;20061;-78
2023/10/04 16:14:44;;;;;;;4.78;2.83;;;19.60;60.10;;;;;;5035822;28;20388;-81
2023/10/04 16:17:12;;;;;;;6.85;3.53;;;19.50;60.10;;;;;;5044090;28;20068;-87
2023/10/04 16:19:38;;;;;;;5.13;3.10;;;19.50;60.20;;;;;;5050084;28;20109;-83
2023/10/04 16:22:03;;;;;;;5.32;3.20;;;19.50;60.30;;;;;;5043633;28;20064;-80
2023/10/04 16:24:31;;;;;;;5.43;3.28;;;19.40;60.30;;;;;;5021057;28;20083;-85
2023/10/04 16:27:00;;;;;;;5.68;3.50;;;19.40;60.40;;;;;;5051578;28;20059;-89
2023/10/04 16:29:26;;;;;;;6.50;3.50;;;19.40;60.50;;;;;;5052199;28;20029;-83
2023/10/04 16:31:52;;;;;;;5.55;3.60;;;19.30;60.60;;;;;;5036963;28;20040;-88
2023/10/04 16:34:18;;;;;;;4.70;3.20;;;19.30;60.60;;;;;;5056229;28;20028;-84
2023/10/04 16:36:59;;;;;;;4.35;3.03;;;19.30;60.70;;;;;;5052615;28;20053;-85
2023/10/04 16:39:27;;;;;;;5.95;2.90;;;19.30;60.80;;;;;;5049620;28;20045;-88
2023/10/04 16:41:53;;;;;;;6.40;3.00;;;19.20;60.80;;;;;;5051040;28;20112;-86
2023/10/04 16:44:19;;;;;;;7.47;3.38;;;19.20;60.90;;;;;;5048599;28;20049;-80
2023/10/04 16:46:45;;;;;;;5.55;3.45;;;19.20;61.00;;;;;;5037943;28;20043;-80
2023/10/04 16:49:43;;;;;;;4.30;3.13;;;19.20;61.00;;;;;;5037081;28;20467;-82
2023/10/04 16:52:09;;;;;;;6.47;3.55;;;19.20;61.10;;;;;;5055593;28;20041;-85
2023/10/04 16:54:34;;;;;;;7.28;3.70;;;19.20;61.20;;;;;;5046425;28;20191;-87
2023/10/04 16:57:00;;;;;;;4.95;3.00;;;19.10;61.10;;;;;;5041876;28;20115;-76
2023/10/04 16:59:26;;;;;;;5.40;3.00;;;19.10;61.20;;;;;;5041570;28;20025;-81
2023/10/04 17:01:52;;;;;;;4.90;3.47;;;19.10;61.30;;;;;;5041858;28;20025;-85
2023/10/04 17:04:18;;;;;;;8.90;3.70;;;19.10;61.30;;;;;;5056375;28;20163;-90
2023/10/04 17:06:43;;;;;;;6.60;3.53;;;19.10;61.40;;;;;;5050497;28;20026;-79
2023/10/04 17:09:11;;;;;;;4.63;3.17;;;19.10;61.40;;;;;;5046275;28;20422;-85
2023/10/04 17:11:36;;;;;;;7.15;3.80;;;19.00;61.40;;;;;;5047238;28;20044;-77
2023/10/04 17:14:02;;;;;;;6.35;3.40;;;19.00;61.40;;;;;;5048708;28;20029;-72
2023/10/04 17:16:28;;;;;;;6.15;3.72;;;19.10;61.40;;;;;;5038636;28;20052;-78
2023/10/04 17:18:55;;;;;;;8.85;3.95;;;19.00;61.50;;;;;;5032474;28;20476;-73
2023/10/04 17:21:22;;;;;;;7.57;4.97;;;19.00;61.50;;;;;;5035892;28;20448;-69
2023/10/04 17:23:47;;;;;;;8.60;5.65;;;19.00;61.50;;;;;;5047102;28;20029;-70
2023/10/04 17:26:13;;;;;;;8.45;5.47;;;19.00;61.60;;;;;;5052618;28;20439;-77
2023/10/04 17:28:39;;;;;;;8.98;5.07;;;19.00;61.70;;;;;;5044383;28;20029;-74
2023/10/04 17:31:05;;;;;;;7.95;5.10;;;18.90;61.70;;;;;;5031026;28;20034;-72
2023/10/04 17:33:32;;;;;;;8.32;5.47;;;18.90;61.80;;;;;;5052177;28;20021;-72
2023/10/04 17:35:58;;;;;;;8.27;4.75;;;18.90;61.90;;;;;;5053744;28;20057;-77
2023/10/04 17:38:25;;;;;;;7.50;4.75;;;18.90;62.00;;;;;;5030415;28;20037;-77
2023/10/04 17:40:51;;;;;;;18.17;12.75;;;18.80;62.10;;;;;;5041508;28;20428;-76
2023/10/04 17:43:17;;;;;;;13.65;10.35;;;18.80;62.10;;;;;;5041307;28;20128;-80
2023/10/04 17:45:42;;;;;;;44.35;35.53;;;18.80;62.20;;;;;;5046520;28;20108;-86
2023/10/04 17:48:08;;;;;;;32.47;23.20;;;18.70;62.30;;;;;;5047421;28;20022;-87
2023/10/04 17:50:35;;;;;;;18.88;13.13;;;18.80;62.40;;;;;;5048855;28;20520;-86
2023/10/04 17:53:02;;;;;;;20.50;13.18;;;18.80;62.30;;;;;;5044511;28;20099;-82
2023/10/04 17:55:29;;;;;;;11.02;8.35;;;18.80;62.30;;;;;;5046940;28;20030;-77
2023/10/04 17:57:54;;;;;;;12.13;8.57;;;18.80;62.30;;;;;;5044844;28;20049;-84
2023/10/04 18:00:20;;;;;;;11.60;7.63;;;18.70;62.30;;;;;;5048199;28;20025;-82
2023/10/04 18:02:49;;;;;;;12.05;7.00;;;18.70;62.20;;;;;;5046342;28;20033;-85
2023/10/04 18:08:21;;;;;;;10.73;6.45;;;18.60;62.30;;;;;;5044471;28;20068;-87
2023/10/04 18:11:28;;;;;;;11.25;5.90;;;18.60;62.30;;;;;;5042861;28;20088;-78
2023/10/04 18:13:54;;;;;;;11.10;5.90;;;18.50;62.40;;;;;;5064911;28;20075;-81
2023/10/04 18:16:20;;;;;;;11.00;6.20;;;18.50;62.40;;;;;;5049971;28;20122;-79
2023/10/04 18:18:45;;;;;;;10.73;6.05;;;18.40;62.40;;;;;;5051170;28;20044;-82
2023/10/04 18:21:14;;;;;;;11.55;5.43;;;18.40;62.50;;;;;;5066498;28;20488;-82
2023/10/04 18:23:50;;;;;;;11.80;5.90;;;18.40;62.60;;;;;;5071584;28;20118;-84
2023/10/04 18:26:15;;;;;;;16.55;6.20;;;18.40;62.60;;;;;;5063275;28;20043;-82
2023/10/04 18:28:41;;;;;;;10.27;5.90;;;18.40;62.70;;;;;;5057380;28;20037;-81
2023/10/04 18:31:09;;;;;;;10.52;6.68;;;18.30;62.70;;;;;;5055580;28;20020;-80